Time;durP1;ratioP1;P1;durP2;ratioP2;P2;SDS_P1;SDS_P2;PMS_P1;PMS_P2;Temp;Humidity;BMP_temperature;BMP_pressure;BME280_temperature;BME280_humidity;BME280_pressure;Samples;Min_cycle;Max_cycle;Signal;HPM_P1;HPM_P2
2022/07/07 00:00:53;;;;;;;5.20;3.28;;;;;;;31.10;43.93;101092.28;4149251;28;20539;-59
2022/07/07 00:02:58;;;;;;;4.57;4.10;;;;;;;31.09;43.84;101092.63;4148724;28;20111;-59
2022/07/07 00:04:59;;;;;;;6.45;3.85;;;;;;;31.10;43.71;101097.13;4148812;28;20030;-59
2022/07/07 00:07:01;;;;;;;4.72;4.03;;;;;;;31.10;43.88;101105.59;4149288;28;20416;-59
2022/07/07 00:09:04;;;;;;;4.15;3.75;;;;;;;31.09;43.75;101098.28;4149001;28;20088;-60
2022/07/07 00:11:05;;;;;;;4.43;3.80;;;;;;;31.09;43.85;101101.13;4147726;28;20034;-59
2022/07/07 00:13:06;;;;;;;5.43;4.20;;;;;;;31.08;43.81;101094.66;4148738;28;20120;-59
2022/07/07 00:15:08;;;;;;;6.25;3.88;;;;;;;31.10;43.67;101108.41;4149155;28;20108;-59
2022/07/07 00:17:10;;;;;;;6.97;4.00;;;;;;;31.07;43.79;101109.13;4148125;28;20042;-59
2022/07/07 00:19:17;;;;;;;4.32;3.92;;;;;;;31.08;43.61;101116.44;4145906;28;20085;-59
2022/07/07 00:21:19;;;;;;;5.43;3.80;;;;;;;31.08;43.61;101113.59;4148948;28;20436;-59
2022/07/07 00:23:23;;;;;;;4.95;3.60;;;;;;;31.07;43.68;101114.78;4148433;28;20436;-59
2022/07/07 00:25:24;;;;;;;5.20;3.40;;;;;;;31.08;43.75;101119.25;4149342;28;20141;-59
2022/07/07 00:27:26;;;;;;;4.45;3.55;;;;;;;31.08;43.60;101124.91;4148762;28;20073;-58
2022/07/07 00:29:27;;;;;;;4.03;3.72;;;;;;;31.08;43.71;101127.75;4148455;28;20046;-59
2022/07/07 00:31:29;;;;;;;3.30;3.00;;;;;;;31.07;43.72;101121.25;4148480;28;20041;-60
2022/07/07 00:33:30;;;;;;;4.30;3.90;;;;;;;31.07;43.71;101126.09;4148785;28;20033;-60
2022/07/07 00:35:35;;;;;;;4.43;3.58;;;;;;;31.08;43.59;101127.75;4148856;28;20593;-60
2022/07/07 00:37:36;;;;;;;4.60;3.80;;;;;;;31.06;43.54;101135.72;4148830;28;20417;-59
2022/07/07 00:39:38;;;;;;;4.10;3.38;;;;;;;31.08;43.65;101139.03;4148323;28;20375;-60
2022/07/07 00:41:40;;;;;;;3.40;3.10;;;;;;;31.00;43.52;101131.47;4148721;28;20041;-60
2022/07/07 00:43:43;;;;;;;4.45;2.95;;;;;;;31.02;43.49;101131.94;4148306;28;20042;-59
2022/07/07 00:45:53;;;;;;;3.75;3.40;;;;;;;31.06;43.74;101147.03;4149004;28;20095;-59
2022/07/07 00:47:55;;;;;;;3.60;3.30;;;;;;;31.07;43.68;101143.06;4149000;28;20226;-59
2022/07/07 00:49:59;;;;;;;3.53;3.22;;;;;;;31.07;43.83;101145.88;4148497;28;20054;-59
2022/07/07 00:52:01;;;;;;;3.67;3.28;;;;;;;31.07;43.47;101160.00;4147962;28;20128;-59
2022/07/07 00:54:02;;;;;;;3.97;3.58;;;;;;;31.06;43.77;101161.16;4147806;28;20095;-59
2022/07/07 00:56:04;;;;;;;3.70;3.40;;;;;;;31.05;43.87;101157.50;4148249;28;20030;-59
2022/07/07 00:58:09;;;;;;;3.70;3.40;;;;;;;31.04;43.58;101155.84;4148248;28;20034;-59
2022/07/07 01:00:13;;;;;;;4.35;3.67;;;;;;;31.05;43.69;101156.69;4148129;28;20072;-59
2022/07/07 01:02:15;;;;;;;5.00;3.35;;;;;;;31.04;43.60;101149.38;4147878;28;20096;-59
2022/07/07 01:04:17;;;;;;;4.50;3.40;;;;;;;31.04;43.64;101138.06;4145696;28;20041;-59
2022/07/07 01:06:22;;;;;;;3.47;3.17;;;;;;;31.03;43.55;101133.59;4148020;28;20112;-59
2022/07/07 01:08:23;;;;;;;3.88;3.20;;;;;;;31.05;43.69;101142.56;4147630;28;20092;-59
2022/07/07 01:10:25;;;;;;;4.13;3.42;;;;;;;31.04;43.78;101138.06;4148258;28;20033;-59
2022/07/07 01:12:33;;;;;;;4.07;3.60;;;;;;;31.01;44.00;101142.41;4147362;28;20049;-59
2022/07/07 01:14:34;;;;;;;3.42;3.13;;;;;;;31.04;43.82;101161.50;4148059;28;20440;-59
2022/07/07 01:16:36;;;;;;;3.15;2.95;;;;;;;31.03;43.49;101159.88;4148243;28;20038;-59
2022/07/07 01:18:44;;;;;;;3.35;3.00;;;;;;;30.99;43.53;101150.41;4147969;28;20359;-59
2022/07/07 01:20:47;;;;;;;4.95;3.35;;;;;;;31.02;43.85;101157.38;4147929;28;20107;-59
2022/07/07 01:22:55;;;;;;;3.40;3.10;;;;;;;31.02;43.52;101158.22;4147884;28;20046;-59
2022/07/07 01:24:58;;;;;;;3.90;2.85;;;;;;;31.02;43.71;101163.88;4147565;28;20501;-59
2022/07/07 01:27:15;;;;;;;3.38;2.95;;;;;;;31.02;43.70;101171.50;4147770;28;20104;-59
2022/07/07 01:29:19;;;;;;;2.95;2.65;;;;;;;31.01;43.67;101179.16;4147745;28;20433;-59
2022/07/07 01:31:21;;;;;;;4.07;2.72;;;;;;;31.02;43.65;101185.63;4147487;28;20851;-59
2022/07/07 01:33:22;;;;;;;3.00;2.70;;;;;;;31.01;43.76;101181.97;4147751;28;20042;-59
2022/07/07 01:35:24;;;;;;;4.00;3.20;;;;;;;30.97;43.54;101166.88;4148080;28;20490;-60
2022/07/07 01:37:33;;;;;;;2.80;2.58;;;;;;;30.99;43.56;101181.50;4147865;28;20042;-59
2022/07/07 01:39:36;;;;;;;2.83;2.63;;;;;;;30.99;43.58;101184.34;4147817;28;20046;-60
2022/07/07 01:41:37;;;;;;;3.17;2.88;;;;;;;30.98;43.75;101184.69;4147742;28;20092;-59
2022/07/07 01:43:38;;;;;;;2.40;2.20;;;;;;;30.97;43.64;101183.00;4148406;28;20038;-60
2022/07/07 01:45:40;;;;;;;3.08;2.88;;;;;;;30.98;43.53;101201.66;4147421;28;20390;-59
2022/07/07 01:47:44;;;;;;;2.50;2.22;;;;;;;30.98;43.61;101207.28;4147970;28;20433;-60
2022/07/07 01:49:49;;;;;;;2.60;2.40;;;;;;;30.93;43.62;101193.34;4147788;28;20104;-60
2022/07/07 01:51:50;;;;;;;;;;;;;;;30.95;43.90;101208.78;4146951;28;20034;-60
2022/07/07 01:53:54;;;;;;;3.10;2.80;;;;;;;31.00;43.40;101207.75;4148034;28;19919;-58
2022/07/07 01:56:03;;;;;;;3.17;2.88;;;;;;;30.96;43.41;101201.97;4148421;28;20108;-58
2022/07/07 01:58:04;;;;;;;3.22;2.05;;;;;;;31.00;43.56;101204.94;4147454;28;20042;-60
2022/07/07 02:00:09;;;;;;;2.50;2.30;;;;;;;30.98;43.29;101212.94;4147622;28;20046;-59
2022/07/07 02:02:12;;;;;;;3.10;2.40;;;;;;;30.88;43.58;101198.06;4147517;28;20073;-60
2022/07/07 02:04:17;;;;;;;2.50;2.30;;;;;;;30.97;43.38;101205.63;4147288;28;20053;-59
2022/07/07 02:06:20;;;;;;;2.03;1.83;;;;;;;30.96;43.15;101209.63;4147204;28;20050;-60
2022/07/07 02:08:22;;;;;;;1.42;1.33;;;;;;;30.89;43.09;101198.88;4146972;28;20111;-60
2022/07/07 02:12:46;;;;;;;1.95;1.50;;;;;;;30.90;43.23;101194.06;4148978;28;20456;-59
2022/07/07 02:14:53;;;;;;;1.90;1.80;;;;;;;30.92;43.18;101197.34;4150500;28;20034;-58
2022/07/07 02:16:55;;;;;;;2.00;1.65;;;;;;;30.95;43.43;101202.31;4150596;28;20126;-58
2022/07/07 02:18:59;;;;;;;1.88;1.77;;;;;;;30.90;43.12;101199.69;4149842;28;20410;-59
2022/07/07 02:21:00;;;;;;;2.13;1.58;;;;;;;30.93;43.24;101199.00;4149486;28;20081;-58
2022/07/07 02:23:02;;;;;;;2.20;1.80;;;;;;;30.93;43.15;101210.28;4150263;28;20046;-59
2022/07/07 02:25:03;;;;;;;2.42;2.22;;;;;;;30.92;43.30;101209.47;4150367;28;20092;-58
2022/07/07 02:27:05;;;;;;;2.63;2.08;;;;;;;30.91;43.30;101195.69;4150636;28;20046;-58
2022/07/07 02:29:06;;;;;;;1.80;1.63;;;;;;;30.92;43.36;101200.16;4149666;28;20038;-58
2022/07/07 02:31:08;;;;;;;2.53;2.10;;;;;;;30.90;43.17;101194.06;4150286;28;20100;-58
2022/07/07 02:33:10;;;;;;;1.65;1.55;;;;;;;30.90;43.07;101194.06;4150295;28;20073;-59
2022/07/07 02:35:14;;;;;;;1.90;1.67;;;;;;;30.90;43.02;101199.69;4149719;28;20433;-59
2022/07/07 02:37:15;;;;;;;1.27;1.17;;;;;;;30.89;43.01;101198.88;4150926;28;20551;-59
2022/07/07 02:39:16;;;;;;;2.20;1.35;;;;;;;30.89;42.90;101204.53;4150083;28;20037;-59
2022/07/07 02:41:19;;;;;;;2.63;1.50;;;;;;;30.87;42.69;101196.38;4150500;28;20092;-59
2022/07/07 02:43:24;;;;;;;1.65;1.35;;;;;;;30.86;42.90;101200.38;4150042;28;20374;-59
2022/07/07 02:45:34;;;;;;;2.13;1.50;;;;;;;30.86;42.96;101194.72;4149935;28;20038;-59
2022/07/07 02:47:35;;;;;;;1.45;1.25;;;;;;;30.86;42.82;101191.91;4150307;28;20084;-59
2022/07/07 02:49:37;;;;;;;2.40;1.60;;;;;;;30.86;42.76;101194.72;4149985;28;20080;-59
2022/07/07 02:51:43;;;;;;;3.28;1.70;;;;;;;30.86;42.98;101193.91;4150223;28;20049;-59
2022/07/07 02:53:45;;;;;;;1.50;1.40;;;;;;;30.84;43.07;101196.25;4150003;28;20073;-59
2022/07/07 02:55:46;;;;;;;2.85;1.40;;;;;;;30.85;43.19;101201.56;4150188;28;20096;-58
2022/07/07 02:57:48;;;;;;;1.60;1.50;;;;;;;30.83;43.02;101200.22;4149999;28;20104;-58
2022/07/07 02:59:50;;;;;;;2.42;1.45;;;;;;;30.83;43.00;101203.88;4149985;28;20108;-58
2022/07/07 03:01:52;;;;;;;1.70;1.50;;;;;;;30.84;42.96;101214.03;4150188;28;20108;-58
2022/07/07 03:03:53;;;;;;;1.90;1.50;;;;;;;30.84;43.17;101213.22;4149907;28;20030;-58
2022/07/07 03:05:55;;;;;;;1.70;1.52;;;;;;;30.78;43.32;101209.72;4149403;28;20050;-58
2022/07/07 03:07:57;;;;;;;1.67;1.40;;;;;;;30.83;43.21;101209.53;4149684;28;20096;-58
2022/07/07 03:09:58;;;;;;;1.52;1.42;;;;;;;30.75;43.00;101189.84;4149286;28;20046;-58
2022/07/07 03:11:59;;;;;;;2.28;1.40;;;;;;;30.83;43.25;101201.06;4149582;28;20096;-58
2022/07/07 03:14:01;;;;;;;1.67;1.30;;;;;;;30.77;42.97;101191.13;4149805;28;20048;-59
2022/07/07 03:16:06;;;;;;;1.88;1.45;;;;;;;30.83;43.00;101212.34;4149331;28;20108;-58
2022/07/07 03:18:10;;;;;;;1.85;1.60;;;;;;;30.79;43.24;101193.59;4149862;28;20477;-58
2022/07/07 03:20:13;;;;;;;1.73;1.50;;;;;;;30.81;43.14;101209.06;4149845;28;20038;-59
2022/07/07 03:22:15;;;;;;;2.15;1.60;;;;;;;30.81;43.03;101206.22;4149545;28;20042;-58
2022/07/07 03:24:16;;;;;;;2.35;1.20;;;;;;;30.82;43.00;101207.88;4149891;28;20030;-58
2022/07/07 03:26:20;;;;;;;1.60;1.50;;;;;;;30.79;43.01;101213.38;4150229;28;20072;-58
2022/07/07 03:28:21;;;;;;;2.75;1.45;;;;;;;30.79;43.00;101217.06;4149089;28;20054;-59
2022/07/07 03:30:23;;;;;;;2.20;1.50;;;;;;;30.79;43.01;101214.25;4150071;28;20042;-59
2022/07/07 03:32:24;;;;;;;1.60;1.50;;;;;;;30.79;43.38;101222.72;4150061;28;20037;-59
2022/07/07 03:34:25;;;;;;;1.50;1.40;;;;;;;30.76;43.22;101209.25;4148993;28;20108;-58
2022/07/07 03:36:30;;;;;;;1.75;1.65;;;;;;;30.79;43.25;101216.22;4149241;28;20042;-58
2022/07/07 03:38:33;;;;;;;2.22;1.48;;;;;;;30.74;42.99;101214.41;4148973;28;20042;-58
2022/07/07 03:40:35;;;;;;;1.48;1.38;;;;;;;30.79;43.06;101222.72;4149269;28;20034;-58
2022/07/07 03:42:46;;;;;;;2.45;1.30;;;;;;;30.79;43.29;101228.38;4149245;28;20038;-60
2022/07/07 03:44:48;;;;;;;1.65;1.55;;;;;;;30.78;43.10;101215.38;4149227;28;20103;-59
2022/07/07 03:46:49;;;;;;;1.90;1.60;;;;;;;30.79;43.38;101205.75;4149826;28;20424;-59
2022/07/07 03:48:53;;;;;;;3.20;1.40;;;;;;;30.78;43.22;101215.38;4149144;28;20558;-59
2022/07/07 03:50:55;;;;;;;1.73;1.50;;;;;;;30.79;43.34;101216.22;4149360;28;20030;-60
2022/07/07 03:52:59;;;;;;;1.52;1.42;;;;;;;30.77;43.38;101216.56;4147956;28;20551;-59
2022/07/07 03:55:01;;;;;;;1.58;1.48;;;;;;;30.78;43.30;101212.56;4149646;28;20180;-59
2022/07/07 03:57:02;;;;;;;1.85;1.30;;;;;;;30.78;43.50;101215.38;4147909;28;20505;-59
2022/07/07 03:59:04;;;;;;;1.40;1.30;;;;;;;30.79;43.36;101211.41;4147233;28;20034;-60
2022/07/07 04:01:08;;;;;;;1.58;1.48;;;;;;;30.78;43.24;101212.56;4148546;28;20100;-60
2022/07/07 04:03:10;;;;;;;1.58;1.33;;;;;;;30.77;43.35;101207.25;4149586;28;20030;-59
2022/07/07 04:05:12;;;;;;;1.35;1.25;;;;;;;30.71;43.35;101198.16;4148607;28;20034;-59
2022/07/07 04:07:16;;;;;;;1.17;1.10;;;;;;;30.75;43.32;101199.13;4148627;28;20037;-60
2022/07/07 04:09:17;;;;;;;1.88;1.60;;;;;;;30.77;43.41;101208.09;4148914;28;20111;-59
2022/07/07 04:11:19;;;;;;;1.60;1.50;;;;;;;30.77;43.35;101202.44;4149314;28;20049;-60
2022/07/07 04:13:20;;;;;;;1.42;1.30;;;;;;;30.76;43.50;101202.78;4149079;28;20133;-59
2022/07/07 04:15:21;;;;;;;1.70;1.42;;;;;;;30.76;43.31;101209.25;4149292;28;20038;-60
2022/07/07 04:17:25;;;;;;;1.75;1.50;;;;;;;30.76;43.45;101203.63;4148632;28;20184;-60
2022/07/07 04:19:27;;;;;;;2.90;1.75;;;;;;;30.76;43.33;101197.13;4149084;28;20050;-60
2022/07/07 04:21:28;;;;;;;2.80;1.52;;;;;;;30.76;43.56;101205.63;4149357;28;20064;-58
2022/07/07 04:23:29;;;;;;;1.95;1.30;;;;;;;30.73;43.65;101201.47;4148296;28;20453;-59
2022/07/07 04:25:34;;;;;;;1.90;1.70;;;;;;;30.76;43.37;101206.44;4148574;28;20046;-59
2022/07/07 04:27:36;;;;;;;1.60;1.50;;;;;;;30.75;43.35;101213.25;4148919;28;20490;-59
2022/07/07 04:29:37;;;;;;;3.25;1.52;;;;;;;30.75;43.60;101213.25;4148033;28;20038;-58
2022/07/07 04:31:44;;;;;;;1.67;1.50;;;;;;;30.66;43.63;101201.16;4149195;28;20092;-59
2022/07/07 04:33:51;;;;;;;1.55;1.38;;;;;;;30.69;43.43;101206.09;4148270;28;20547;-59
2022/07/07 04:35:53;;;;;;;2.45;1.30;;;;;;;30.74;43.70;101214.41;4148130;28;20560;-59
2022/07/07 04:37:54;;;;;;;1.73;1.63;;;;;;;30.74;43.67;101214.41;4148210;28;20038;-59
2022/07/07 04:39:59;;;;;;;1.65;1.55;;;;;;;30.74;43.63;101213.59;4148424;28;20112;-60
2022/07/07 04:42:00;;;;;;;;;;;;;;;30.72;43.45;101213.94;4147891;28;20092;-59
2022/07/07 04:44:01;;;;;;;2.03;1.80;;;;;;;30.77;43.46;101207.25;4147178;28;20381;-60
2022/07/07 04:46:05;;;;;;;2.20;1.45;;;;;;;30.77;43.68;101208.09;4148266;28;20110;-58
2022/07/07 04:48:07;;;;;;;1.60;1.50;;;;;;;30.77;43.66;101201.63;4147973;28;20099;-60
2022/07/07 04:50:13;;;;;;;1.30;1.20;;;;;;;30.76;43.38;101200.78;4148965;28;20061;-61
2022/07/07 04:52:14;;;;;;;1.77;1.50;;;;;;;30.73;43.48;101197.81;4148613;28;20115;-59
2022/07/07 04:54:16;;;;;;;1.33;1.20;;;;;;;30.66;43.57;101192.69;4148349;28;20042;-59
2022/07/07 04:56:18;;;;;;;1.50;1.40;;;;;;;30.73;43.47;101204.28;4148318;28;20042;-60
2022/07/07 04:58:19;;;;;;;1.83;1.63;;;;;;;30.72;43.51;101199.00;4147892;28;20046;-59
2022/07/07 05:00:21;;;;;;;1.38;1.27;;;;;;;30.73;43.54;101200.63;4148730;28;20437;-59
2022/07/07 05:02:23;;;;;;;1.63;1.50;;;;;;;30.72;43.86;101199.81;4148178;28;20046;-60
2022/07/07 05:04:24;;;;;;;1.77;1.50;;;;;;;30.72;43.48;101204.63;4147904;28;20049;-60
2022/07/07 05:06:26;;;;;;;1.40;1.30;;;;;;;30.72;43.47;101205.47;4148184;28;20096;-59
2022/07/07 05:08:29;;;;;;;1.70;1.60;;;;;;;30.72;43.52;101199.81;4148147;28;20037;-61
2022/07/07 05:10:35;;;;;;;1.42;1.20;;;;;;;30.72;43.51;101199.81;4148236;28;20401;-60
2022/07/07 05:12:37;;;;;;;2.13;1.58;;;;;;;30.72;43.79;101196.16;4147729;28;20050;-60
2022/07/07 05:14:38;;;;;;;1.48;1.35;;;;;;;30.72;43.71;101194.16;4147790;28;20433;-59
2022/07/07 05:16:40;;;;;;;1.40;1.30;;;;;;;30.69;43.84;101194.81;4147862;28;20099;-60
2022/07/07 05:18:41;;;;;;;1.50;1.40;;;;;;;30.71;43.61;101198.16;4147626;28;20034;-59
2022/07/07 05:20:42;;;;;;;1.45;1.35;;;;;;;30.66;43.77;101184.22;4148051;28;20444;-60
2022/07/07 05:22:44;;;;;;;1.60;1.50;;;;;;;30.69;43.60;101188.34;4148305;28;20104;-60
2022/07/07 05:24:48;;;;;;;2.15;1.67;;;;;;;30.70;43.62;101190.84;4148025;28;20038;-60
2022/07/07 05:26:52;;;;;;;1.42;1.33;;;;;;;30.69;43.87;101189.16;4147811;28;20042;-59
2022/07/07 05:28:57;;;;;;;1.70;1.58;;;;;;;30.70;43.68;101188.00;4147541;28;20444;-59
2022/07/07 05:30:58;;;;;;;2.05;1.30;;;;;;;30.65;43.75;101174.06;4148227;28;20042;-58
2022/07/07 05:32:59;;;;;;;1.50;1.35;;;;;;;30.70;43.77;101187.16;4146858;28;20042;-58
2022/07/07 05:35:01;;;;;;;1.63;1.40;;;;;;;30.69;43.88;101186.34;4147875;28;20076;-58
2022/07/07 05:37:05;;;;;;;1.50;1.40;;;;;;;30.69;43.99;101186.34;4147694;28;20050;-58
2022/07/07 05:39:06;;;;;;;1.73;1.40;;;;;;;30.70;43.69;101181.50;4147849;28;20096;-58
2022/07/07 05:41:07;;;;;;;1.42;1.30;;;;;;;30.69;44.03;101186.34;4147784;28;20037;-59
2022/07/07 05:43:09;;;;;;;1.13;1.10;;;;;;;30.70;43.84;101188.00;4148442;28;20531;-58
2022/07/07 05:45:10;;;;;;;1.30;1.20;;;;;;;30.69;43.68;101177.84;4148074;28;20528;-58
2022/07/07 05:47:20;;;;;;;1.80;1.30;;;;;;;30.60;43.71;101162.97;4147940;28;20046;-58
2022/07/07 05:49:21;;;;;;;1.50;1.40;;;;;;;30.69;43.70;101166.56;4150141;28;20440;-59
2022/07/07 05:51:23;;;;;;;1.40;1.30;;;;;;;30.68;43.89;101175.38;4151736;28;20088;-58
2022/07/07 05:53:24;;;;;;;1.50;1.40;;;;;;;30.67;43.89;101171.75;4151273;28;20069;-59
2022/07/07 05:55:26;;;;;;;1.50;1.40;;;;;;;30.67;43.85;101180.22;4151026;28;20049;-58
2022/07/07 05:57:31;;;;;;;1.60;1.50;;;;;;;30.67;43.91;101174.56;4151524;28;20046;-58
2022/07/07 05:59:33;;;;;;;1.27;1.17;;;;;;;30.66;43.88;101172.91;4150504;28;20042;-58
2022/07/07 06:01:34;;;;;;;1.13;1.05;;;;;;;30.59;43.95;101155.66;4150818;28;20077;-58
2022/07/07 06:03:35;;;;;;;1.30;1.20;;;;;;;30.67;43.99;101173.75;4149593;28;20069;-58
2022/07/07 06:05:37;;;;;;;1.40;1.30;;;;;;;30.67;43.90;101174.56;4150998;28;20084;-58
2022/07/07 06:07:39;;;;;;;1.20;1.10;;;;;;;30.67;43.92;101168.09;4147084;28;20123;-58
2022/07/07 06:09:42;;;;;;;1.63;1.40;;;;;;;30.66;44.04;101172.91;4150588;28;20100;-58
2022/07/07 06:11:44;;;;;;;1.15;1.10;;;;;;;30.66;44.05;101172.91;4150657;28;20104;-58
2022/07/07 06:13:46;;;;;;;1.33;1.23;;;;;;;30.63;44.01;101167.94;4150176;28;20037;-58
2022/07/07 06:15:50;;;;;;;1.48;1.38;;;;;;;30.65;44.18;101165.59;4151232;28;20374;-58
2022/07/07 06:17:51;;;;;;;1.33;1.23;;;;;;;30.66;44.22;101172.91;4150610;28;20050;-58
2022/07/07 06:19:55;;;;;;;1.55;1.45;;;;;;;30.65;43.95;101188.19;4150179;28;20034;-58
2022/07/07 06:21:57;;;;;;;1.40;1.30;;;;;;;30.65;43.98;101193.84;4150607;28;20513;-58
2022/07/07 06:23:58;;;;;;;2.20;1.88;;;;;;;30.65;44.03;101193.84;4150752;28;20805;-59
2022/07/07 06:26:02;;;;;;;1.60;1.50;;;;;;;30.63;44.08;101196.19;4150427;28;20096;-59
2022/07/07 06:28:04;;;;;;;1.50;1.40;;;;;;;30.65;43.86;101210.78;4150202;28;20049;-59
2022/07/07 06:30:06;;;;;;;1.55;1.40;;;;;;;30.64;43.97;101204.31;4150473;28;20092;-59
2022/07/07 06:32:07;;;;;;;1.42;1.33;;;;;;;30.65;44.17;101210.78;4150704;28;20045;-59
2022/07/07 06:34:09;;;;;;;2.75;1.45;;;;;;;30.59;44.21;101206.50;4150009;28;20042;-59
2022/07/07 06:36:10;;;;;;;1.50;1.40;;;;;;;30.64;44.14;101221.25;4149935;28;20041;-59
2022/07/07 06:38:11;;;;;;;1.30;1.20;;;;;;;30.63;44.20;101213.97;4149785;28;20189;-59
2022/07/07 06:40:13;;;;;;;1.17;1.10;;;;;;;30.65;44.18;101222.06;4150419;28;20037;-59
2022/07/07 06:42:17;;;;;;;1.95;1.70;;;;;;;30.64;44.17;101226.91;4149897;28;20050;-59
2022/07/07 06:44:18;;;;;;;1.50;1.30;;;;;;;30.64;44.26;101221.25;4150001;28;20103;-58
2022/07/07 06:46:19;;;;;;;1.77;1.40;;;;;;;30.65;44.33;101222.06;4150640;28;20485;-59
2022/07/07 06:48:21;;;;;;;1.40;1.30;;;;;;;30.60;44.38;101200.50;4150364;28;20034;-59
2022/07/07 06:50:22;;;;;;;1.23;1.13;;;;;;;30.66;44.29;101211.63;4149959;28;20046;-59
2022/07/07 06:52:24;;;;;;;2.00;1.45;;;;;;;30.64;44.21;101197.84;4150423;28;20030;-59
2022/07/07 06:54:25;;;;;;;1.30;1.20;;;;;;;30.65;44.23;101205.13;4149897;28;20042;-59
2022/07/07 06:56:27;;;;;;;1.30;1.20;;;;;;;30.64;44.29;101197.84;4150055;28;20050;-59
2022/07/07 06:58:28;;;;;;;1.58;1.25;;;;;;;30.63;44.28;101190.53;4149301;28;20457;-59
2022/07/07 07:00:30;;;;;;;1.38;1.20;;;;;;;30.63;44.57;101197.00;4150142;28;20046;-59
2022/07/07 07:02:31;;;;;;;1.55;1.30;;;;;;;30.62;44.44;101188.88;4150270;28;20076;-59
2022/07/07 07:04:33;;;;;;;1.58;1.40;;;;;;;30.63;44.45;101202.66;4149992;28;20049;-59
2022/07/07 07:06:34;;;;;;;1.50;1.40;;;;;;;30.62;44.51;101197.34;4149774;28;20038;-58
2022/07/07 07:08:36;;;;;;;1.23;1.13;;;;;;;30.63;44.67;101196.19;4149095;28;20097;-59
2022/07/07 07:10:40;;;;;;;1.30;1.20;;;;;;;30.61;44.49;101198.53;4149774;28;20030;-59
2022/07/07 07:12:42;;;;;;;2.75;1.48;;;;;;;30.62;44.78;101205.84;4149699;28;20478;-59
2022/07/07 07:14:43;;;;;;;1.58;1.48;;;;;;;30.63;44.66;101201.84;4149397;28;20038;-59
2022/07/07 07:16:47;;;;;;;2.10;1.63;;;;;;;30.63;44.95;101201.84;4149956;28;20164;-59
2022/07/07 07:18:49;;;;;;;1.20;1.10;;;;;;;30.59;45.08;101195.22;4149327;28;20444;-59
2022/07/07 07:20:53;;;;;;;2.03;1.48;;;;;;;30.58;45.14;101196.38;4148097;28;20030;-59
2022/07/07 07:22:55;;;;;;;1.35;1.02;;;;;;;30.61;44.73;101199.34;4149992;28;20088;-59
2022/07/07 07:24:56;;;;;;;1.45;1.35;;;;;;;30.59;44.56;101200.84;4149856;28;20030;-59
2022/07/07 07:26:57;;;;;;;2.72;1.60;;;;;;;30.61;44.89;101207.00;4149768;28;20077;-59
2022/07/07 07:28:59;;;;;;;1.70;1.60;;;;;;;30.59;44.79;101206.50;4148587;28;20080;-59
2022/07/07 07:31:01;;;;;;;1.60;1.50;;;;;;;30.60;45.20;101208.16;4149075;28;20046;-59
2022/07/07 07:33:02;;;;;;;1.35;1.25;;;;;;;30.60;45.24;101208.16;4147936;28;20042;-59
2022/07/07 07:35:10;;;;;;;1.65;1.55;;;;;;;30.55;45.10;101209.19;4149429;28;20436;-59
2022/07/07 07:37:11;;;;;;;1.30;1.20;;;;;;;30.58;45.25;101219.81;4150187;28;20100;-59
2022/07/07 07:39:12;;;;;;;1.50;1.40;;;;;;;30.59;44.97;101223.44;4148893;28;20046;-59
2022/07/07 07:41:18;;;;;;;2.00;1.80;;;;;;;30.54;45.21;101215.19;4148010;28;20045;-59
2022/07/07 07:43:19;;;;;;;1.85;1.52;;;;;;;30.59;45.22;101223.44;4149312;28;20378;-59
2022/07/07 07:45:21;;;;;;;1.67;1.40;;;;;;;30.59;45.44;101229.09;4149243;28;20045;-59
2022/07/07 07:47:26;;;;;;;1.60;1.50;;;;;;;30.59;45.46;101234.75;4149366;28;20477;-59
2022/07/07 07:49:27;;;;;;;1.80;1.60;;;;;;;30.54;45.68;101232.94;4149436;28;20046;-60
2022/07/07 07:51:36;;;;;;;2.60;1.70;;;;;;;30.58;45.90;101239.56;4150171;28;20038;-58
2022/07/07 07:53:37;;;;;;;3.38;1.60;;;;;;;30.59;46.29;101237.56;4150552;28;20049;-59
2022/07/07 07:55:42;;;;;;;1.55;1.45;;;;;;;30.52;45.93;101231.66;4149962;28;20046;-59
2022/07/07 07:57:44;;;;;;;2.22;1.85;;;;;;;30.57;46.14;101246.41;4149856;28;20053;-59
2022/07/07 07:59:45;;;;;;;2.17;2.08;;;;;;;30.58;46.72;101250.03;4149059;28;20486;-59
2022/07/07 08:01:47;;;;;;;1.88;1.67;;;;;;;30.57;46.71;101254.03;4150244;28;20104;-59
2022/07/07 08:03:48;;;;;;;2.13;1.92;;;;;;;30.55;46.80;101239.41;4149804;28;20042;-58
2022/07/07 08:05:50;;;;;;;2.63;1.85;;;;;;;30.57;46.72;101251.22;4148884;28;20108;-58
2022/07/07 08:07:53;;;;;;;2.35;2.00;;;;;;;30.57;47.09;101265.34;4143822;28;20068;-59
2022/07/07 08:09:55;;;;;;;3.92;2.20;;;;;;;30.56;46.45;101267.34;4148122;28;20111;-59
2022/07/07 08:11:59;;;;;;;2.38;1.83;;;;;;;30.55;46.74;101267.66;4147815;28;20104;-59
2022/07/07 08:14:01;;;;;;;2.20;2.00;;;;;;;30.57;46.74;101271.00;4148864;28;20045;-58
2022/07/07 08:16:03;;;;;;;2.78;1.85;;;;;;;30.53;46.78;101259.53;4149106;28;20073;-59
2022/07/07 08:18:04;;;;;;;3.65;2.17;;;;;;;30.50;46.61;101259.38;4148433;28;20042;-59
2022/07/07 08:20:09;;;;;;;3.53;2.10;;;;;;;30.56;46.89;101263.66;4148577;28;20030;-58
2022/07/07 08:22:10;;;;;;;;;;;;;;;30.54;46.94;101268.84;4149024;28;20095;-58
2022/07/07 08:24:15;;;;;;;2.35;2.00;;;;;;;30.59;46.93;101265.81;4149085;28;19913;-59
2022/07/07 08:26:16;;;;;;;2.22;2.00;;;;;;;30.59;46.31;101266.66;4148899;28;20104;-58
2022/07/07 08:28:18;;;;;;;2.20;1.92;;;;;;;30.59;46.19;101272.28;4148277;28;20417;-59
2022/07/07 08:30:19;;;;;;;2.85;2.05;;;;;;;30.58;46.11;101278.28;4149239;28;20227;-58
2022/07/07 08:32:23;;;;;;;1.88;1.73;;;;;;;30.57;46.00;101276.63;4148452;28;20493;-58
2022/07/07 08:34:25;;;;;;;2.00;1.80;;;;;;;30.56;46.22;101277.78;4149101;28;20100;-59
2022/07/07 08:36:26;;;;;;;2.67;2.00;;;;;;;30.49;46.29;101272.69;4148428;28;20474;-59
2022/07/07 08:38:28;;;;;;;2.33;1.98;;;;;;;30.55;46.45;101288.25;4148016;28;20038;-59
2022/07/07 08:40:29;;;;;;;3.15;2.15;;;;;;;30.55;46.90;101295.91;4148613;28;20033;-59
2022/07/07 08:42:31;;;;;;;2.72;2.05;;;;;;;30.51;46.13;101284.44;4148835;28;20112;-58
2022/07/07 08:44:32;;;;;;;2.17;1.95;;;;;;;30.53;46.82;101290.59;4148307;28;20041;-59
2022/07/07 08:46:36;;;;;;;2.08;1.70;;;;;;;30.53;46.69;101284.97;4148081;28;20038;-59
2022/07/07 08:48:38;;;;;;;2.30;2.08;;;;;;;30.52;46.69;101288.13;4147997;28;20077;-59
2022/07/07 08:50:39;;;;;;;2.17;1.98;;;;;;;30.52;46.20;101293.78;4148099;28;20074;-59
2022/07/07 08:52:50;;;;;;;2.50;1.90;;;;;;;30.45;46.88;101282.16;4148332;28;20042;-59
2022/07/07 08:54:55;;;;;;;1.80;1.70;;;;;;;30.53;46.64;101286.94;4148183;28;20096;-59
2022/07/07 08:56:57;;;;;;;2.60;2.08;;;;;;;30.52;46.72;101288.13;4148089;28;20362;-59
2022/07/07 08:58:58;;;;;;;4.53;2.10;;;;;;;30.53;46.96;101303.91;4147820;28;20038;-59
2022/07/07 09:01:03;;;;;;;5.03;2.00;;;;;;;30.51;47.04;101300.56;4148542;28;20037;-59
2022/07/07 09:03:05;;;;;;;2.33;1.90;;;;;;;30.50;47.21;101307.38;4148630;28;20029;-58
2022/07/07 09:05:07;;;;;;;2.10;1.63;;;;;;;30.50;47.33;101321.50;4148091;28;20033;-58
2022/07/07 09:07:08;;;;;;;2.95;2.10;;;;;;;30.49;47.34;101314.22;4148033;28;20417;-59
2022/07/07 09:09:10;;;;;;;2.78;2.05;;;;;;;30.49;47.42;101322.69;4147783;28;20449;-59
2022/07/07 09:11:15;;;;;;;3.25;2.00;;;;;;;30.49;47.79;101319.84;4148450;28;20456;-59
2022/07/07 09:13:23;;;;;;;2.30;2.10;;;;;;;30.47;47.38;101316.53;4148318;28;20049;-59
2022/07/07 09:15:28;;;;;;;4.03;1.92;;;;;;;30.48;47.24;101326.69;4147940;28;20100;-59
2022/07/07 09:17:33;;;;;;;3.40;2.10;;;;;;;30.47;47.22;101325.84;4148630;28;20042;-59
2022/07/07 09:19:37;;;;;;;2.22;2.03;;;;;;;30.48;47.54;101327.50;4148280;28;20033;-59
2022/07/07 09:21:39;;;;;;;2.80;1.92;;;;;;;30.47;47.47;101319.34;4147943;28;20033;-59
2022/07/07 09:23:53;;;;;;;2.20;1.98;;;;;;;30.46;47.39;101317.69;4148353;28;20038;-59
2022/07/07 09:25:58;;;;;;;2.53;1.95;;;;;;;30.48;47.28;101323.84;4147045;28;20555;-59
2022/07/07 09:28:07;;;;;;;2.33;1.70;;;;;;;30.48;47.26;101323.84;4148112;28;20462;-58
2022/07/07 09:30:11;;;;;;;2.83;1.73;;;;;;;30.47;47.56;101323.03;4147738;28;20096;-59
2022/07/07 09:32:12;;;;;;;;;;;;;;;30.44;47.35;101329.34;4148376;28;20088;-59
2022/07/07 09:34:14;;;;;;;2.25;2.03;;;;;;;30.49;47.24;101329.16;4148122;28;19917;-58